This is the latest recevied weather packets stored in our database for station/object SP3PDK-1. If no packets are shown the sender has not sent any weather packets the latest 10 day(s).
| Time | Temp. | Humidity | Pressure | Rain* | Wind** | Luminosity | Snow |
|---|---|---|---|---|---|---|---|
| 1777479258 | 13.33° C | 28% | 1028.9 hPa | - | - | - | - |
| 1777478053 | 13.33° C | 28% | 1028.9 hPa | - | - | - | - |
| 1777477453 | 12.78° C | 28% | 1029 hPa | - | - | - | - |
| 1777476858 | 13.33° C | 28% | 1028.9 hPa | - | - | - | - |
| 1777476254 | 12.22° C | 28% | 1029 hPa | - | - | - | - |
| 1777475658 | 12.78° C | 28% | 1029 hPa | - | - | - | - |
| 1777475054 | 12.78° C | 28% | 1028.9 hPa | - | - | - | - |
| 1777474454 | 13.33° C | 27% | 1029 hPa | - | - | - | - |
| 1777473257 | 12.78° C | 28% | 1029.1 hPa | - | - | - | - |
| 1777472656 | 13.33° C | 27% | 1029.1 hPa | - | - | - | - |
| 1777472056 | 13.33° C | 28% | 1029.1 hPa | - | - | - | - |
| 1777471454 | 13.89° C | 27% | 1029 hPa | - | - | - | - |
| 1777470858 | 12.78° C | 27% | 1029.2 hPa | - | - | - | - |
| 1777470258 | 13.33° C | 27% | 1029.1 hPa | - | - | - | - |
| 1777469658 | 13.33° C | 26% | 1029.1 hPa | - | - | - | - |
| 1777469056 | 12.78° C | 27% | 1029.1 hPa | - | - | - | - |
| 1777468458 | 12.78° C | 26% | 1029.1 hPa | - | - | - | - |
| 1777467854 | 13.33° C | 26% | 1029.1 hPa | - | - | - | - |
| 1777467254 | 13.33° C | 26% | 1029.2 hPa | - | - | - | - |
| 1777466654 | 13.33° C | 26% | 1029 hPa | - | - | - | - |
| 1777466055 | 13.33° C | 26% | 1029.1 hPa | - | - | - | - |
| 1777465454 | 12.78° C | 25% | 1029.1 hPa | - | - | - | - |
| 1777464858 | 12.78° C | 27% | 1029.1 hPa | - | - | - | - |
| 1777463658 | 12.78° C | 26% | 1029 hPa | - | - | - | - |
| 1777463058 | 12.78° C | 27% | 1029.1 hPa | - | - | - | - |
* Rain since midnight (hover to see other rain measurements)
** Current wind speed in m/s (hover to see current wind gust speed)